createdAt,value
2018-01-28T00:01:56.818Z,4.82
2018-01-28T00:04:26.701Z,5.07
2018-01-28T00:07:06.160Z,4.12
2018-01-28T00:09:58.302Z,4.57
2018-01-28T00:12:37.645Z,4.43
2018-01-28T00:15:05.571Z,5.12
2018-01-28T00:17:33.984Z,4.72
2018-01-28T00:20:04.447Z,4.32
2018-01-28T00:33:50.216Z,4.70
2018-01-28T00:39:20.840Z,4.72
2018-01-28T00:44:50.634Z,5.30
2018-01-28T00:47:19.683Z,4.97
2018-01-28T00:49:48.833Z,4.12
2018-01-28T00:52:28.592Z,4.90
2018-01-28T00:55:11.494Z,5.37
2018-01-28T01:00:50.179Z,4.55
2018-01-28T01:06:37.417Z,4.60
2018-01-28T01:12:13.282Z,4.30
2018-01-28T01:14:44.041Z,5.05
2018-01-28T01:17:11.467Z,3.70
2018-01-28T01:19:50.057Z,4.18
2018-01-28T01:24:55.395Z,4.15
2018-01-28T01:27:43.848Z,3.62
2018-01-28T01:30:10.566Z,3.50
2018-01-28T01:32:37.856Z,4.10
2018-01-28T01:35:20.376Z,4.18
2018-01-28T01:37:46.729Z,3.40
2018-01-28T01:40:13.684Z,3.50
2018-01-28T01:45:58.766Z,4.03
2018-01-28T01:48:35.686Z,3.58
2018-01-28T01:51:04.161Z,3.30
2018-01-28T01:53:32.219Z,3.15
2018-01-28T01:56:05.290Z,3.80
2018-01-28T01:58:35.822Z,3.33
2018-01-28T02:01:05.433Z,3.30
2018-01-28T02:03:35.265Z,3.35
2018-01-28T02:06:04.636Z,3.45
2018-01-28T02:08:34.852Z,3.37
2018-01-28T02:11:02.551Z,3.50
2018-01-28T02:13:28.810Z,3.85
2018-01-28T02:16:02.302Z,4.37
2018-01-28T02:18:29.072Z,3.53
2018-01-28T02:20:55.235Z,4.30
2018-01-28T02:23:21.372Z,3.83
2018-01-28T02:25:47.754Z,4.53
2018-01-28T02:28:24.017Z,5.35
2018-01-28T02:30:50.462Z,4.30
2018-01-28T02:33:16.982Z,4.70
2018-01-28T02:35:43.135Z,5.45
2018-01-28T02:43:45.481Z,5.35
2018-01-28T02:46:20.595Z,5.55
2018-01-28T02:48:47.015Z,5.45
2018-01-28T02:54:13.627Z,5.90
2018-01-28T02:56:40.548Z,5.75
2018-01-28T02:59:07.266Z,4.68
2018-01-28T03:01:35.236Z,5.80
2018-01-28T03:06:58.855Z,5.28
2018-01-28T03:09:26.088Z,4.95
2018-01-28T03:11:52.233Z,4.32
2018-01-28T03:14:18.457Z,4.28
2018-01-28T03:16:44.683Z,5.30
2018-01-28T03:19:21.364Z,4.82
2018-01-28T03:21:47.544Z,5.05
2018-01-28T03:24:30.898Z,5.60
2018-01-28T03:27:21.074Z,5.62
2018-01-28T03:29:47.275Z,5.47
2018-01-28T03:32:13.501Z,5.40
2018-01-28T03:34:52.598Z,4.97
2018-01-28T03:37:19.014Z,5.85
2018-01-28T03:39:45.337Z,4.97
2018-01-28T03:42:11.528Z,5.97
2018-01-28T03:44:46.378Z,6.40
2018-01-28T03:47:12.736Z,5.90
2018-01-28T03:49:50.765Z,6.15
2018-01-28T03:52:17.426Z,5.72
2018-01-28T03:54:58.865Z,5.72
2018-01-28T04:00:23.850Z,5.60
2018-01-28T04:02:50.301Z,5.32
2018-01-28T04:05:16.615Z,6.50
2018-01-28T04:07:43.053Z,6.57
2018-01-28T04:10:20.062Z,6.00
2018-01-28T04:12:46.406Z,6.70
2018-01-28T04:15:12.755Z,6.70
2018-01-28T04:17:39.147Z,6.00
2018-01-28T04:20:05.560Z,5.90
2018-01-28T04:25:41.535Z,5.87
2018-01-28T04:28:20.196Z,6.15
2018-01-28T04:30:46.451Z,5.72
2018-01-28T04:33:22.963Z,6.45
2018-01-28T04:35:49.120Z,6.35
2018-01-28T04:38:21.246Z,5.70
2018-01-28T04:40:47.479Z,5.53
2018-01-28T04:43:13.626Z,6.75
2018-01-28T04:45:50.648Z,5.47
2018-01-28T04:48:16.988Z,5.30
2018-01-28T04:50:43.383Z,5.70
2018-01-28T04:58:47.726Z,5.15
2018-01-28T05:01:14.223Z,4.95
2018-01-28T05:03:40.597Z,5.00
2018-01-28T05:06:20.581Z,4.82
2018-01-28T05:08:47.080Z,4.53
2018-01-28T05:11:20.124Z,5.28
2018-01-28T05:14:01.350Z,4.60
2018-01-28T05:16:32.837Z,5.00
2018-01-28T05:22:20.189Z,4.87
2018-01-28T05:24:46.424Z,4.70
2018-01-28T05:27:12.603Z,4.40
2018-01-28T05:29:52.067Z,4.90
2018-01-28T05:32:19.009Z,4.50
2018-01-28T05:49:56.890Z,5.62
2018-01-28T05:52:23.311Z,5.20
2018-01-28T05:57:47.221Z,5.18
2018-01-28T06:00:13.651Z,5.80
2018-01-28T06:03:00.163Z,5.10
2018-01-28T06:11:16.499Z,6.30
2018-01-28T06:13:50.208Z,7.75
2018-01-28T06:16:16.686Z,7.20
2018-01-28T06:18:43.951Z,7.68
2018-01-28T06:24:20.141Z,7.60
2018-01-28T06:26:46.673Z,8.20
2018-01-28T06:32:12.596Z,9.05
2018-01-28T06:34:49.996Z,9.60
2018-01-28T06:37:22.690Z,9.88
2018-01-28T06:39:48.821Z,9.45
2018-01-28T06:42:21.459Z,10.30
2018-01-28T06:44:51.363Z,10.63
2018-01-28T06:47:17.688Z,10.57
2018-01-28T06:49:49.956Z,11.00
2018-01-28T06:55:24.296Z,11.27
2018-01-28T06:57:50.626Z,11.95
2018-01-28T07:00:20.459Z,12.43
2018-01-28T07:05:57.373Z,12.32
2018-01-28T07:08:40.445Z,13.20
2018-01-28T07:11:34.615Z,13.93
2018-01-28T07:14:10.964Z,12.50
2018-01-28T07:16:48.261Z,13.50
2018-01-28T07:31:05.922Z,13.13
2018-01-28T07:33:34.268Z,14.20
2018-01-28T07:36:05.322Z,14.20
2018-01-28T07:38:35.963Z,14.80
2018-01-28T07:41:06.203Z,14.00
2018-01-28T07:43:48.492Z,15.65
2018-01-28T07:46:30.994Z,13.98
2018-01-28T07:54:50.717Z,13.60
2018-01-28T07:57:36.357Z,15.90
2018-01-28T08:00:06.160Z,16.20
2018-01-28T08:05:42.379Z,15.20
2018-01-28T08:08:26.928Z,14.87
2018-01-28T08:11:00.064Z,14.35
2018-01-28T08:13:34.410Z,15.07
2018-01-28T08:19:07.498Z,14.27
2018-01-28T08:21:33.894Z,15.30
2018-01-28T08:24:00.445Z,15.85
2018-01-28T08:26:26.904Z,15.98
2018-01-28T08:28:54.227Z,16.90
2018-01-28T08:31:20.759Z,17.62
2018-01-28T08:33:47.145Z,15.05
2018-01-28T08:36:14.162Z,15.00
2018-01-28T08:38:40.721Z,16.35
2018-01-28T08:41:07.304Z,15.75
2018-01-28T08:43:50.907Z,17.23
2018-01-28T08:46:18.508Z,16.30
2018-01-28T08:48:45.046Z,17.17
2018-01-28T08:54:11.356Z,15.60
2018-01-28T08:56:37.729Z,15.98
2018-01-28T08:59:04.878Z,16.23
2018-01-28T09:01:31.315Z,16.15
2018-01-28T09:03:58.135Z,16.17
2018-01-28T09:06:26.530Z,16.10
2018-01-28T09:09:20.134Z,15.77
2018-01-28T09:11:49.295Z,16.45
2018-01-28T09:14:16.173Z,15.82
2018-01-28T09:16:49.187Z,16.80
2018-01-28T09:19:17.767Z,15.57
2018-01-28T09:21:44.252Z,15.30
2018-01-28T09:27:20.188Z,14.73
2018-01-28T09:29:46.889Z,15.70
2018-01-28T09:32:13.278Z,16.40
2018-01-28T09:34:59.026Z,14.82
2018-01-28T09:49:22.052Z,13.95
2018-01-28T09:51:51.551Z,15.65
2018-01-28T09:54:20.801Z,15.13
2018-01-28T09:57:08.728Z,16.42
2018-01-28T09:59:49.874Z,14.60
2018-01-28T10:05:42.983Z,14.45
2018-01-28T10:11:05.203Z,17.15
2018-01-28T10:13:31.723Z,16.80
2018-01-28T10:16:09.074Z,16.17
2018-01-28T10:21:13.140Z,17.98
2018-01-28T10:23:40.510Z,18.12
2018-01-28T10:26:09.686Z,15.93
2018-01-28T10:28:52.516Z,17.65
2018-01-28T11:38:50.169Z,14.48
2018-01-28T11:47:23.672Z,13.50
2018-01-28T11:49:53.043Z,13.07
2018-01-28T12:05:52.116Z,12.90
2018-01-28T12:08:38.666Z,12.85
2018-01-28T12:11:06.689Z,13.15
2018-01-28T12:13:33.404Z,12.98
2018-01-28T12:16:01.295Z,13.60
2018-01-28T12:18:29.387Z,14.35
2018-01-28T12:23:50.094Z,12.45
2018-01-28T12:26:21.264Z,12.25
2018-01-28T12:28:47.787Z,11.57
2018-01-28T12:31:17.147Z,12.68
2018-01-28T12:34:13.538Z,13.18
2018-01-28T12:36:50.465Z,13.02
2018-01-28T12:42:17.947Z,13.15
2018-01-28T12:44:47.744Z,13.90
2018-01-28T12:47:21.733Z,12.93
2018-01-28T12:49:54.057Z,13.60
2018-01-28T12:52:21.193Z,12.45
2018-01-28T12:54:55.284Z,12.95
2018-01-28T12:57:38.093Z,11.98
2018-01-28T13:00:12.128Z,11.07
2018-01-28T13:02:40.316Z,11.30
2018-01-28T13:05:21.112Z,10.63
2018-01-28T13:07:47.643Z,10.85
2018-01-28T13:10:17.523Z,9.93
2018-01-28T13:12:44.956Z,10.32
2018-01-28T13:15:12.682Z,10.50
2018-01-28T13:20:38.938Z,9.82
2018-01-28T13:26:07.439Z,9.02
2018-01-28T13:28:40.624Z,8.90
2018-01-28T13:40:17.162Z,7.97
2018-01-28T13:42:43.629Z,8.60
2018-01-28T13:51:10.474Z,8.23
2018-01-28T13:57:08.672Z,8.10
2018-01-28T14:05:41.257Z,8.45
2018-01-28T14:08:07.667Z,7.35
2018-01-28T14:11:15.000Z,7.15
2018-01-28T14:14:02.546Z,7.12
2018-01-28T14:16:39.554Z,7.53
2018-01-28T14:28:14.869Z,7.75
2018-01-28T14:30:41.399Z,6.45
2018-01-28T14:33:18.292Z,8.43
2018-01-28T14:38:48.322Z,7.90
2018-01-28T14:41:14.506Z,7.35
2018-01-28T14:43:54.894Z,6.12
2018-01-28T14:46:34.357Z,6.70
2018-01-28T14:52:00.178Z,5.80
2018-01-28T14:54:26.589Z,8.43
2018-01-28T14:56:53.294Z,6.35
2018-01-28T14:59:19.764Z,6.00
2018-01-28T15:04:45.878Z,6.32
2018-01-28T15:22:21.840Z,5.75
2018-01-28T15:28:08.816Z,7.12
2018-01-28T15:30:41.306Z,6.32
2018-01-28T15:33:07.476Z,5.62
2018-01-28T15:35:33.925Z,6.30
2018-01-28T15:38:00.530Z,5.95
2018-01-28T15:40:30.632Z,6.32
2018-01-28T15:45:57.106Z,6.95
2018-01-28T15:48:39.023Z,7.22
2018-01-28T15:51:05.558Z,6.78
2018-01-28T15:54:09.406Z,6.10
2018-01-28T15:56:36.737Z,6.43
2018-01-28T17:00:39.122Z,8.07
2018-01-28T17:03:11.344Z,7.50
2018-01-28T17:05:37.557Z,9.30
2018-01-28T17:11:04.712Z,9.38
2018-01-28T17:16:30.328Z,8.90
2018-01-28T17:21:56.896Z,9.40
2018-01-28T17:24:24.051Z,10.05
2018-01-28T17:30:08.997Z,9.70
2018-01-28T17:32:35.293Z,9.70
2018-01-28T17:35:01.724Z,9.73
2018-01-28T17:37:31.466Z,10.90
2018-01-28T17:43:06.560Z,10.68
2018-01-28T17:45:32.951Z,10.05
2018-01-28T17:48:09.520Z,10.20
2018-01-28T17:50:35.952Z,10.70
2018-01-28T17:53:02.505Z,11.57
2018-01-28T17:55:28.956Z,12.32
2018-01-28T17:58:00.592Z,11.85
2018-01-28T18:00:40.241Z,13.13
2018-01-28T18:03:07.143Z,11.00
2018-01-28T18:11:33.751Z,12.35
2018-01-28T18:17:09.351Z,12.52
2018-01-28T18:19:39.532Z,13.25
2018-01-28T18:22:09.345Z,12.02
2018-01-28T18:24:35.801Z,13.77
2018-01-28T18:27:02.274Z,12.40
2018-01-28T18:32:28.501Z,11.73
2018-01-28T18:34:54.881Z,11.60
2018-01-28T18:37:39.044Z,13.32
2018-01-28T18:40:07.235Z,12.85
2018-01-28T18:52:10.213Z,14.38
2018-01-28T18:57:36.572Z,14.23
2018-01-28T19:00:03.112Z,14.10
2018-01-28T19:11:48.632Z,14.02
2018-01-28T19:14:23.796Z,14.35
2018-01-28T19:17:09.074Z,15.93
2018-01-28T19:19:39.400Z,15.25
2018-01-28T19:22:06.380Z,16.05
2018-01-28T19:24:32.760Z,15.30
2018-01-28T19:35:58.300Z,13.15
2018-01-28T19:38:24.740Z,13.50
2018-01-28T19:40:51.172Z,13.75
2018-01-28T19:43:31.346Z,14.05
2018-01-28T19:46:10.821Z,13.62
2018-01-28T19:54:46.911Z,13.45
2018-01-28T20:00:13.173Z,13.02
2018-01-28T20:02:42.519Z,15.55
2018-01-28T20:08:05.668Z,12.65
2018-01-28T20:10:32.845Z,12.93
2018-01-28T20:13:38.583Z,13.18
2018-01-28T20:16:11.154Z,12.95
2018-01-28T20:18:37.453Z,11.48
2018-01-28T20:21:03.697Z,11.38
2018-01-28T20:23:29.956Z,12.45
2018-01-28T20:28:44.664Z,10.40
2018-01-28T20:40:40.588Z,13.05
2018-01-28T20:43:10.378Z,10.25
2018-01-28T20:48:41.281Z,10.80
2018-01-28T20:51:08.616Z,10.65
2018-01-28T20:56:38.871Z,9.63
2018-01-28T20:59:05.219Z,10.82
2018-01-28T21:01:31.584Z,10.98
2018-01-28T21:04:11.544Z,10.45
2018-01-28T21:06:37.923Z,9.32
2018-01-28T21:15:13.612Z,9.20
2018-01-28T21:23:40.569Z,11.38
2018-01-28T21:26:07.574Z,8.50
2018-01-28T21:28:40.770Z,10.70
2018-01-28T21:34:04.595Z,10.20
2018-01-28T21:42:30.108Z,9.45
2018-01-28T21:45:11.117Z,10.15
2018-01-28T21:47:37.506Z,10.25
2018-01-28T21:59:18.915Z,9.13
2018-01-28T22:02:03.483Z,9.27
2018-01-28T22:04:40.887Z,9.50
2018-01-28T22:07:07.278Z,9.55
2018-01-28T22:09:39.487Z,9.90
2018-01-28T22:12:05.935Z,8.63
2018-01-28T22:14:32.773Z,10.23
2018-01-28T22:17:08.604Z,10.63
2018-01-28T22:19:35.001Z,8.65
2018-01-28T22:22:01.599Z,9.80
2018-01-28T23:14:09.801Z,9.55
2018-01-28T23:22:38.268Z,9.40
2018-01-28T23:25:29.394Z,8.80
2018-01-28T23:27:55.735Z,7.75
2018-01-28T23:30:23.211Z,7.62
2018-01-28T23:33:11.272Z,7.93
2018-01-28T23:41:35.601Z,5.12
2018-01-28T23:47:13.628Z,5.28
2018-01-28T23:59:08.862Z,3.70
